PWSweather.com
Personal Weather Stations
Station Observations
KOHBELLV2
Sw Richland County, Bellville, OH 44813

Sw Richland CountyBellville, OH 44813

Lat: 40.582, Lon: -82.564

Elevation: 1410

Station Type: Davis Vantage Pro2

http://weather.kimbersigns.com

Latest ConditionsUpdated 11:00:01 PM EDT Monday, Mar 25, 2019
Currently Today's Max Today's Min Today's Average
Temperature 28.9°F-1.7°C 43.9°F6.6°C 28.9°F-1.7°C 37.6°F3.1°C
Dew Point 17.1°F-8.3°C 39.9°F4.4°C 7.9°F-13.4°C 28.6°F-1.9°C
Winds Calm Calm Calm -Calm - - Calm Calm
Wind Gusts 3.0 mph4.8 kmh 18.0 mph29.0 kmh - -
Humidity 61% 93% 30% 74%
Pressure 30.28 in1025.4 mb 30.28 in1025.4 mb 30.05 in1017.6 mb -
Precipitation - 0.03 in0.8 mm - -
Hour Temp Dew Point Humidity Winds Wind Gusts Pressure Precip Precip Rate Daily Precip Total
11:00 PM 28.9°F-1.7°C 17.1°F-8.3°C 61% Calm Calm 3.0 mph4.8 kmh 30.28 in1025.4 mb 0.00 in0.0 mm 0.00 in0.0 mm 0.03 in0.8 mm
10:45 PM 29.3°F-1.5°C 17.1°F-8.3°C 60% Calm Calm 1.0 mph1.6 kmh 30.28 in1025.4 mb 0.00 in0.0 mm 0.00 in0.0 mm 0.03 in0.8 mm
10:30 PM 29.7°F-1.3°C 16.3°F-8.7°C 57% Calm Calm 1.0 mph1.6 kmh 30.27 in1025.1 mb 0.00 in0.0 mm 0.00 in0.0 mm 0.03 in0.8 mm
10:15 PM 30.0°F-1.1°C 15.8°F-9.0°C 55% Calm Calm 11.0 mph17.7 kmh 30.27 in1025.1 mb 0.00 in0.0 mm 0.00 in0.0 mm 0.03 in0.8 mm
10:00 PM 30.5°F-0.8°C 15.4°F-9.2°C 53% Calm Calm 4.0 mph6.4 kmh 30.26 in1024.7 mb 0.00 in0.0 mm 0.00 in0.0 mm 0.03 in0.8 mm
09:45 PM 31.1°F-0.5°C 15.5°F-9.2°C 52% Calm Calm 1.0 mph1.6 kmh 30.26 in1024.7 mb 0.00 in0.0 mm 0.00 in0.0 mm 0.03 in0.8 mm
09:30 PM 31.6°F-0.2°C 16.0°F-8.9°C 52% Calm Calm -- 30.25 in1024.4 mb 0.00 in0.0 mm 0.00 in0.0 mm 0.03 in0.8 mm
09:15 PM 32.2°F0.1°C 16.1°F-8.8°C 51% Calm Calm -- 30.25 in1024.4 mb 0.00 in0.0 mm 0.00 in0.0 mm 0.03 in0.8 mm
09:00 PM 32.9°F0.5°C 15.3°F-9.3°C 48% Calm Calm -- 30.24 in1024.0 mb 0.00 in0.0 mm 0.00 in0.0 mm 0.03 in0.8 mm
08:45 PM 33.1°F0.6°C 15.0°F-9.4°C 47% Calm Calm 1.0 mph1.6 kmh 30.23 in1023.7 mb 0.00 in0.0 mm 0.00 in0.0 mm 0.03 in0.8 mm
08:30 PM 33.5°F0.8°C 14.9°F-9.5°C 46% Calm Calm -- 30.22 in1023.4 mb 0.00 in0.0 mm 0.00 in0.0 mm 0.03 in0.8 mm
08:15 PM 34.1°F1.2°C 13.9°F-10.1°C 43% Calm Calm 2.0 mph3.2 kmh 30.22 in1023.4 mb 0.00 in0.0 mm 0.00 in0.0 mm 0.03 in0.8 mm
08:00 PM 34.5°F1.4°C 13.2°F-10.4°C 41% Calm Calm 1.0 mph1.6 kmh 30.21 in1023.0 mb 0.00 in0.0 mm 0.00 in0.0 mm 0.03 in0.8 mm
07:45 PM 34.7°F1.5°C 12.2°F-11.0°C 39% Calm Calm 4.0 mph6.4 kmh 30.20 in1022.7 mb 0.00 in0.0 mm 0.00 in0.0 mm 0.03 in0.8 mm
07:30 PM 35.1°F1.7°C 9.5°F-12.5°C 34% Calm Calm 1.0 mph1.6 kmh 30.20 in1022.7 mb 0.00 in0.0 mm 0.00 in0.0 mm 0.03 in0.8 mm
07:15 PM 35.6°F2.0°C 7.9°F-13.4°C 31% Calm Calm 7.0 mph11.3 kmh 30.19 in1022.4 mb 0.00 in0.0 mm 0.00 in0.0 mm 0.03 in0.8 mm
07:00 PM 36.5°F2.5°C 9.4°F-12.6°C 32% Calm Calm 12.0 mph19.3 kmh 30.18 in1022.0 mb 0.00 in0.0 mm 0.00 in0.0 mm 0.03 in0.8 mm
06:45 PM 37.6°F3.1°C 12.4°F-10.9°C 35% Calm Calm 18.0 mph29.0 kmh 30.17 in1021.7 mb 0.00 in0.0 mm 0.00 in0.0 mm 0.03 in0.8 mm
06:30 PM 37.9°F3.3°C 10.6°F-11.9°C 32% Calm Calm 14.0 mph22.5 kmh 30.16 in1021.3 mb 0.01 in0.3 mm 0.00 in0.0 mm 0.03 in0.8 mm
06:15 PM 38.6°F3.7°C 9.8°F-12.3°C 30% Calm Calm 10.0 mph16.1 kmh 30.15 in1021.0 mb 0.01 in0.3 mm 0.00 in0.0 mm 0.03 in0.8 mm
06:00 PM 39.5°F4.2°C 11.3°F-11.5°C 31% Calm Calm 15.0 mph24.1 kmh 30.15 in1021.0 mb 0.01 in0.3 mm 0.00 in0.0 mm 0.03 in0.8 mm
05:45 PM 40.0°F4.4°C 12.5°F-10.8°C 32% Calm Calm 16.0 mph25.7 kmh 30.14 in1020.7 mb 0.01 in0.3 mm 0.04 in1.0 mm 0.03 in0.8 mm
05:30 PM 40.6°F4.8°C 15.0°F-9.4°C 35% Calm Calm 10.0 mph16.1 kmh 30.14 in1020.7 mb 0.00 in0.0 mm 0.00 in0.0 mm 0.02 in0.5 mm
05:15 PM 41.0°F5.0°C 14.1°F-9.9°C 33% Calm Calm 3.0 mph4.8 kmh 30.14 in1020.7 mb 0.00 in0.0 mm 0.00 in0.0 mm 0.02 in0.5 mm
05:00 PM 41.9°F5.5°C 15.5°F-9.2°C 34% Calm Calm 4.0 mph6.4 kmh 30.13 in1020.3 mb 0.00 in0.0 mm 0.00 in0.0 mm 0.02 in0.5 mm
04:45 PM 42.1°F5.6°C 17.7°F-7.9°C 37% Calm Calm 15.0 mph24.1 kmh 30.13 in1020.3 mb 0.00 in0.0 mm 0.00 in0.0 mm 0.02 in0.5 mm
04:30 PM 42.6°F5.9°C 18.1°F-7.7°C 37% Calm Calm 8.0 mph12.9 kmh 30.12 in1020.0 mb 0.00 in0.0 mm 0.00 in0.0 mm 0.02 in0.5 mm
04:15 PM 43.9°F6.6°C 19.9°F-6.7°C 38% Calm Calm 10.0 mph16.1 kmh 30.12 in1020.0 mb 0.00 in0.0 mm 0.00 in0.0 mm 0.02 in0.5 mm
04:00 PM 43.0°F6.1°C 23.6°F-4.7°C 46% Calm Calm 9.0 mph14.5 kmh 30.12 in1020.0 mb 0.00 in0.0 mm 0.00 in0.0 mm 0.02 in0.5 mm
03:45 PM 43.1°F6.2°C 25.2°F-3.8°C 49% Calm Calm 5.0 mph8.0 kmh 30.12 in1020.0 mb 0.00 in0.0 mm 0.00 in0.0 mm 0.02 in0.5 mm
03:30 PM 43.1°F6.2°C 28.0°F-2.2°C 55% Calm Calm 5.0 mph8.0 kmh 30.12 in1020.0 mb 0.00 in0.0 mm 0.00 in0.0 mm 0.02 in0.5 mm
03:15 PM 42.8°F6.0°C 29.9°F-1.2°C 60% Calm Calm -- 30.12 in1020.0 mb 0.00 in0.0 mm 0.00 in0.0 mm 0.02 in0.5 mm
03:00 PM 41.0°F5.0°C 32.3°F0.2°C 71% Calm Calm -- 30.12 in1020.0 mb 0.00 in0.0 mm 0.00 in0.0 mm 0.02 in0.5 mm
02:45 PM 39.9°F4.4°C 31.9°F-0.1°C 73% Calm Calm 4.0 mph6.4 kmh 30.12 in1020.0 mb 0.00 in0.0 mm 0.00 in0.0 mm 0.02 in0.5 mm
02:30 PM 40.7°F4.8°C 33.1°F0.6°C 74% Calm Calm 10.0 mph16.1 kmh 30.13 in1020.3 mb 0.00 in0.0 mm 0.00 in0.0 mm 0.02 in0.5 mm
02:15 PM 39.6°F4.2°C 33.9°F1.1°C 80% Calm Calm 12.0 mph19.3 kmh 30.13 in1020.3 mb 0.00 in0.0 mm 0.00 in0.0 mm 0.02 in0.5 mm
02:00 PM 37.4°F3.0°C 32.7°F0.4°C 83% Calm Calm -- 30.13 in1020.3 mb 0.00 in0.0 mm 0.00 in0.0 mm 0.02 in0.5 mm
01:45 PM 35.7°F2.1°C 31.9°F-0.1°C 86% Calm Calm 1.0 mph1.6 kmh 30.14 in1020.7 mb 0.00 in0.0 mm 0.00 in0.0 mm 0.02 in0.5 mm
01:30 PM 34.8°F1.6°C 31.3°F-0.4°C 87% Calm Calm -- 30.14 in1020.7 mb 0.00 in0.0 mm 0.00 in0.0 mm 0.02 in0.5 mm
01:15 PM 34.3°F1.3°C 30.8°F-0.7°C 87% Calm Calm -- 30.14 in1020.7 mb 0.00 in0.0 mm 0.00 in0.0 mm 0.02 in0.5 mm
01:00 PM 33.9°F1.1°C 30.7°F-0.7°C 88% Calm Calm -- 30.14 in1020.7 mb 0.00 in0.0 mm 0.00 in0.0 mm 0.02 in0.5 mm
12:45 PM 33.9°F1.1°C 31.0°F-0.6°C 89% Calm Calm -- 30.14 in1020.7 mb 0.00 in0.0 mm 0.00 in0.0 mm 0.02 in0.5 mm
12:30 PM 33.6°F0.9°C 30.4°F-0.9°C 88% Calm Calm -- 30.14 in1020.7 mb 0.00 in0.0 mm 0.00 in0.0 mm 0.02 in0.5 mm
12:15 PM 33.7°F0.9°C 30.5°F-0.8°C 88% Calm Calm -- 30.14 in1020.7 mb 0.00 in0.0 mm 0.00 in0.0 mm 0.02 in0.5 mm
12:00 PM 34.1°F1.2°C 31.2°F-0.4°C 89% Calm Calm -- 30.14 in1020.7 mb 0.00 in0.0 mm 0.00 in0.0 mm 0.02 in0.5 mm
11:45 AM 33.9°F1.1°C 31.0°F-0.6°C 89% Calm Calm -- 30.13 in1020.3 mb 0.00 in0.0 mm 0.00 in0.0 mm 0.02 in0.5 mm
11:30 AM 33.9°F1.1°C 31.0°F-0.6°C 89% Calm Calm 3.0 mph4.8 kmh 30.13 in1020.3 mb 0.00 in0.0 mm 0.00 in0.0 mm 0.02 in0.5 mm
11:15 AM 34.0°F1.1°C 31.1°F-0.5°C 89% Calm Calm 1.0 mph1.6 kmh 30.13 in1020.3 mb 0.00 in0.0 mm 0.00 in0.0 mm 0.02 in0.5 mm
11:00 AM 34.1°F1.2°C 31.2°F-0.4°C 89% Calm Calm 1.0 mph1.6 kmh 30.12 in1020.0 mb 0.00 in0.0 mm 0.00 in0.0 mm 0.02 in0.5 mm
10:45 AM 33.9°F1.1°C 31.3°F-0.4°C 90% Calm Calm -- 30.12 in1020.0 mb 0.00 in0.0 mm 0.00 in0.0 mm 0.02 in0.5 mm
10:30 AM 33.9°F1.1°C 31.3°F-0.4°C 90% Calm Calm -- 30.12 in1020.0 mb 0.00 in0.0 mm 0.00 in0.0 mm 0.02 in0.5 mm
10:15 AM 33.8°F1.0°C 31.2°F-0.4°C 90% Calm Calm -- 30.11 in1019.6 mb 0.00 in0.0 mm 0.00 in0.0 mm 0.02 in0.5 mm
10:00 AM 33.8°F1.0°C 31.2°F-0.4°C 90% Calm Calm -- 30.11 in1019.6 mb 0.00 in0.0 mm 0.00 in0.0 mm 0.02 in0.5 mm
09:45 AM 34.0°F1.1°C 31.4°F-0.3°C 90% Calm Calm 3.0 mph4.8 kmh 30.11 in1019.6 mb 0.00 in0.0 mm 0.00 in0.0 mm 0.02 in0.5 mm
09:30 AM 34.1°F1.2°C 31.5°F-0.3°C 90% Calm Calm -- 30.11 in1019.6 mb 0.00 in0.0 mm 0.00 in0.0 mm 0.02 in0.5 mm
09:15 AM 34.2°F1.2°C 31.6°F-0.2°C 90% Calm Calm -- 30.10 in1019.3 mb 0.00 in0.0 mm 0.00 in0.0 mm 0.02 in0.5 mm
09:00 AM 34.3°F1.3°C 31.7°F-0.2°C 90% Calm Calm -- 30.09 in1019.0 mb 0.00 in0.0 mm 0.00 in0.0 mm 0.02 in0.5 mm
08:45 AM 34.4°F1.3°C 31.8°F-0.1°C 90% Calm Calm -- 30.09 in1019.0 mb 0.00 in0.0 mm 0.00 in0.0 mm 0.02 in0.5 mm
08:30 AM 34.5°F1.4°C 31.9°F-0.1°C 90% Calm Calm 2.0 mph3.2 kmh 30.09 in1019.0 mb 0.00 in0.0 mm 0.00 in0.0 mm 0.02 in0.5 mm
08:15 AM 34.7°F1.5°C 32.1°F0.1°C 90% Calm Calm -- 30.09 in1019.0 mb 0.00 in0.0 mm 0.00 in0.0 mm 0.02 in0.5 mm
08:00 AM 35.0°F1.7°C 32.4°F0.2°C 90% Calm Calm -- 30.09 in1019.0 mb 0.00 in0.0 mm 0.00 in0.0 mm 0.02 in0.5 mm
07:45 AM 35.6°F2.0°C 33.0°F0.6°C 90% Calm Calm -- 30.08 in1018.6 mb 0.00 in0.0 mm 0.00 in0.0 mm 0.02 in0.5 mm
07:30 AM 36.8°F2.7°C 34.4°F1.3°C 91% Calm Calm -- 30.08 in1018.6 mb 0.00 in0.0 mm 0.00 in0.0 mm 0.02 in0.5 mm
07:15 AM 37.2°F2.9°C 34.8°F1.6°C 91% Calm Calm -- 30.07 in1018.3 mb 0.00 in0.0 mm 0.00 in0.0 mm 0.02 in0.5 mm
07:00 AM 38.1°F3.4°C 36.0°F2.2°C 92% Calm Calm -- 30.07 in1018.3 mb 0.00 in0.0 mm 0.00 in0.0 mm 0.02 in0.5 mm
06:45 AM 38.5°F3.6°C 36.4°F2.4°C 92% Calm Calm -- 30.07 in1018.3 mb 0.00 in0.0 mm 0.00 in0.0 mm 0.02 in0.5 mm
06:30 AM 38.8°F3.8°C 36.7°F2.6°C 92% Calm Calm -- 30.07 in1018.3 mb 0.00 in0.0 mm 0.00 in0.0 mm 0.02 in0.5 mm
06:15 AM 39.2°F4.0°C 37.1°F2.8°C 92% Calm Calm -- 30.06 in1017.9 mb 0.00 in0.0 mm 0.00 in0.0 mm 0.02 in0.5 mm
06:00 AM 39.9°F4.4°C 37.8°F3.2°C 92% Calm Calm -- 30.05 in1017.6 mb 0.00 in0.0 mm 0.00 in0.0 mm 0.02 in0.5 mm
05:45 AM 40.7°F4.8°C 38.8°F3.8°C 93% Calm Calm -- 30.06 in1017.9 mb 0.00 in0.0 mm 0.00 in0.0 mm 0.02 in0.5 mm
05:30 AM 41.1°F5.1°C 39.2°F4.0°C 93% Calm Calm -- 30.05 in1017.6 mb 0.00 in0.0 mm 0.00 in0.0 mm 0.02 in0.5 mm
05:15 AM 41.4°F5.2°C 39.5°F4.2°C 93% Calm Calm -- 30.05 in1017.6 mb 0.00 in0.0 mm 0.00 in0.0 mm 0.02 in0.5 mm
05:00 AM 41.6°F5.3°C 39.7°F4.3°C 93% Calm Calm -- 30.05 in1017.6 mb 0.00 in0.0 mm 0.00 in0.0 mm 0.02 in0.5 mm
04:45 AM 41.8°F5.4°C 39.9°F4.4°C 93% Calm Calm -- 30.06 in1017.9 mb 0.00 in0.0 mm 0.00 in0.0 mm 0.02 in0.5 mm
04:30 AM 41.7°F5.4°C 39.8°F4.3°C 93% Calm Calm -- 30.06 in1017.9 mb 0.00 in0.0 mm 0.00 in0.0 mm 0.02 in0.5 mm
04:15 AM 41.6°F5.3°C 39.7°F4.3°C 93% Calm Calm -- 30.07 in1018.3 mb 0.00 in0.0 mm 0.00 in0.0 mm 0.02 in0.5 mm
04:00 AM 41.8°F5.4°C 39.9°F4.4°C 93% Calm Calm -- 30.07 in1018.3 mb 0.00 in0.0 mm 0.00 in0.0 mm 0.02 in0.5 mm
03:45 AM 41.8°F5.4°C 39.9°F4.4°C 93% Calm Calm -- 30.08 in1018.6 mb 0.00 in0.0 mm 0.00 in0.0 mm 0.02 in0.5 mm
03:30 AM 41.8°F5.4°C 39.9°F4.4°C 93% Calm Calm -- 30.09 in1019.0 mb 0.00 in0.0 mm 0.00 in0.0 mm 0.02 in0.5 mm
03:15 AM 41.8°F5.4°C 39.9°F4.4°C 93% Calm Calm -- 30.09 in1019.0 mb 0.00 in0.0 mm 0.00 in0.0 mm 0.02 in0.5 mm
03:00 AM 41.6°F5.3°C 39.7°F4.3°C 93% Calm Calm -- 30.08 in1018.6 mb 0.00 in0.0 mm 0.00 in0.0 mm 0.02 in0.5 mm
02:45 AM 41.5°F5.3°C 39.3°F4.1°C 92% Calm Calm -- 30.09 in1019.0 mb 0.00 in0.0 mm 0.00 in0.0 mm 0.02 in0.5 mm
02:30 AM 41.6°F5.3°C 39.4°F4.1°C 92% Calm Calm -- 30.09 in1019.0 mb 0.00 in0.0 mm 0.00 in0.0 mm 0.02 in0.5 mm
02:15 AM 41.7°F5.4°C 39.5°F4.2°C 92% Calm Calm -- 30.10 in1019.3 mb 0.00 in0.0 mm 0.00 in0.0 mm 0.02 in0.5 mm
02:00 AM 41.8°F5.4°C 39.6°F4.2°C 92% Calm Calm -- 30.10 in1019.3 mb 0.00 in0.0 mm 0.00 in0.0 mm 0.02 in0.5 mm
01:45 AM 41.8°F5.4°C 39.6°F4.2°C 92% Calm Calm -- 30.10 in1019.3 mb 0.00 in0.0 mm 0.00 in0.0 mm 0.02 in0.5 mm
01:30 AM 41.9°F5.5°C 39.5°F4.2°C 91% Calm Calm -- 30.10 in1019.3 mb 0.01 in0.3 mm 0.00 in0.0 mm 0.02 in0.5 mm
01:15 AM 42.0°F5.6°C 39.6°F4.2°C 91% Calm Calm -- 30.11 in1019.6 mb 0.02 in0.5 mm 0.00 in0.0 mm 0.02 in0.5 mm
01:00 AM 42.0°F5.6°C 39.6°F4.2°C 91% Calm Calm -- 30.11 in1019.6 mb 0.02 in0.5 mm 0.00 in0.0 mm 0.02 in0.5 mm
12:45 AM 42.1°F5.6°C 39.7°F4.3°C 91% Calm Calm -- 30.11 in1019.6 mb 0.02 in0.5 mm 0.00 in0.0 mm 0.02 in0.5 mm
12:30 AM 42.2°F5.7°C 39.5°F4.2°C 90% Calm Calm -- 30.11 in1019.6 mb 0.02 in0.5 mm 0.04 in1.0 mm 0.01 in0.3 mm
12:15 AM 42.2°F5.7°C 39.5°F4.2°C 90% Calm Calm -- 30.11 in1019.6 mb 0.01 in0.3 mm 0.00 in0.0 mm 0.02 in0.5 mm
12:00 AM 42.5°F5.8°C 39.5°F4.2°C 89% Calm Calm -- 30.11 in1019.6 mb 0.02 in0.5 mm 0.00 in0.0 mm 0.02 in0.5 mm